Gwyme, Virginia
Current Conditions -  °F | °C
As of 2:55 PM on Saturday 25 Oct 2014 (Local Time) from KW75 Reporting Station
Clear Clear  
Wind Chill: 21°   Ceiling: Unl
Heat Index: 21°   Visibility: 10mi
Dew Point:   Wind: 6mph
Humidity: 41%   Direction: 270°W
Pressure: 29.85"   Gusts: NA
Location:  37.4982°N, 76.2873°W
Report Text: KW75 251855Z AUTO 27005KT 10SM CLR 21/07 A2985 RMK AO1 T02110073
Loading
Personal Weather Stations






























Interactive Weather Map
Tropical Storm Tracking
New forecast layout! Learn more

10-Day Weather Forecast

Advertisements
Track Severe Weather on mobile